Time;durP1;ratioP1;P1;durP2;ratioP2;P2;SDS_P1;SDS_P2;PMS_P1;PMS_P2;Temp;Humidity;BMP_temperature;BMP_pressure;BME280_temperature;BME280_humidity;BME280_pressure;Samples;Min_cycle;Max_cycle;Signal;HPM_P1;HPM_P2
2021/10/01 00:02:21;;;;;;;4.67;1.53;;;;;;;11.10;100.00;101501.50;7396855;19;20517;-58
2021/10/01 00:04:51;;;;;;;4.93;1.43;;;;;;;11.08;100.00;101504.03;7403647;19;20411;-56
2021/10/01 00:07:20;;;;;;;12.60;1.60;;;;;;;11.08;100.00;101511.78;7395311;19;20925;-58
2021/10/01 00:09:50;;;;;;;6.13;1.40;;;;;;;11.16;100.00;101507.88;7403447;19;20455;-58
2021/10/01 00:12:19;;;;;;;6.13;1.30;;;;;;;11.12;100.00;101495.59;7394551;19;20854;-58
2021/10/01 00:14:52;;;;;;;4.00;1.60;;;;;;;11.17;100.00;101496.72;7403159;19;20415;-56
2021/10/01 00:17:22;;;;;;;5.00;1.40;;;;;;;11.12;100.00;101505.06;7398139;19;20432;-58
2021/10/01 00:19:52;;;;;;;3.10;1.63;;;;;;;11.16;100.00;101502.72;7403525;19;20752;-56
2021/10/01 00:22:22;;;;;;;12.80;1.40;;;;;;;11.09;100.00;101487.72;7395233;19;20423;-53
2021/10/01 00:24:51;;;;;;;8.80;1.97;;;;;;;11.00;100.00;101482.97;7401428;19;20394;-56
2021/10/01 00:27:20;;;;;;;6.33;1.43;;;;;;;11.03;100.00;101477.06;7392662;19;20506;-57
2021/10/01 00:29:53;;;;;;;5.37;1.60;;;;;;;11.00;100.00;101479.47;7403145;19;20390;-54
2021/10/01 00:32:22;;;;;;;4.87;1.60;;;;;;;10.98;100.00;101466.47;7395460;19;20435;-53
2021/10/01 00:34:52;;;;;;;5.30;1.40;;;;;;;10.89;100.00;101466.91;7403103;19;20392;-57
2021/10/01 00:37:22;;;;;;;6.23;1.60;;;;;;;11.01;100.00;101466.66;7394792;19;20494;-55
2021/10/01 00:39:53;;;;;;;4.60;1.53;;;;;;;11.02;100.00;101467.56;7403008;19;20700;-55
2021/10/01 00:42:22;;;;;;;4.40;1.30;;;;;;;11.05;100.00;101457.38;7394344;19;20431;-54
2021/10/01 00:44:55;;;;;;;4.07;1.63;;;;;;;11.04;100.00;101460.75;7406915;19;20459;-56
2021/10/01 00:47:24;;;;;;;7.30;1.80;;;;;;;11.14;100.00;101449.19;7395991;19;20749;-58
2021/10/01 00:49:54;;;;;;;4.80;1.50;;;;;;;11.17;100.00;101434.75;7402103;19;20459;-57
2021/10/01 00:52:23;;;;;;;6.90;1.30;;;;;;;11.16;100.00;101445.00;7393669;19;20431;-58
2021/10/01 00:54:53;;;;;;;6.47;1.77;;;;;;;11.17;100.00;101446.75;7404217;19;20651;-55
2021/10/01 00:57:22;;;;;;;6.87;2.00;;;;;;;11.23;100.00;101448.78;7393915;19;20741;-55
2021/10/01 00:59:54;;;;;;;4.70;1.60;;;;;;;11.20;100.00;101440.09;7402392;19;20392;-58
2021/10/01 01:02:24;;;;;;;5.70;1.50;;;;;;;11.28;100.00;101443.03;7395563;19;20890;-56
2021/10/01 01:04:54;;;;;;;10.97;1.50;;;;;;;11.23;100.00;101431.56;7401722;19;20420;-59
2021/10/01 01:07:31;;;;;;;2.80;1.30;;;;;;;11.26;100.00;101424.00;7391806;19;20422;-58
2021/10/01 01:10:06;;;;;;;5.27;1.47;;;;;;;11.37;100.00;101421.94;7402133;19;20380;-58
2021/10/01 01:12:51;;;;;;;3.53;0.93;;;;;;;11.27;100.00;101432.63;7393675;19;20437;-57
2021/10/01 01:15:28;;;;;;;3.93;1.30;;;;;;;11.36;100.00;101422.75;7402109;19;20453;-57
2021/10/01 01:18:01;;;;;;;13.60;1.80;;;;;;;11.28;100.00;101424.06;7396234;19;20419;-57
2021/10/01 01:20:32;;;;;;;3.60;1.50;;;;;;;11.34;100.00;101421.78;7401861;19;20419;-57
2021/10/01 01:23:15;;;;;;;3.10;1.17;;;;;;;11.24;100.00;101416.97;7381519;19;20419;-58
2021/10/01 01:25:57;;;;;;;5.80;1.57;;;;;;;11.25;100.00;101427.38;7397104;19;20411;-58
2021/10/01 01:28:42;;;;;;;5.17;1.60;;;;;;;11.28;100.00;101419.78;7393132;19;20422;-58
2021/10/01 01:31:19;;;;;;;6.03;1.83;;;;;;;11.20;100.00;101416.84;7401787;19;20722;-57
2021/10/01 01:33:52;;;;;;;5.50;1.50;;;;;;;11.31;100.00;101413.88;7399361;19;20763;-58
2021/10/01 01:36:21;;;;;;;6.07;1.63;;;;;;;11.33;100.00;101412.25;7392481;19;21132;-57
2021/10/01 01:38:53;;;;;;;9.23;1.43;;;;;;;11.25;100.00;101408.41;7401067;19;20402;-58
2021/10/01 01:41:23;;;;;;;7.00;1.40;;;;;;;11.22;100.00;101424.63;7394950;19;20908;-57
2021/10/01 01:43:54;;;;;;;4.23;1.80;;;;;;;11.23;100.00;101415.19;7400021;19;20527;-56
2021/10/01 01:46:24;;;;;;;4.57;1.30;;;;;;;11.27;100.00;101417.13;7394680;19;20439;-58
2021/10/01 01:48:57;;;;;;;4.50;1.90;;;;;;;11.28;100.00;101408.56;7400789;19;20403;-56
2021/10/01 01:51:27;;;;;;;5.50;1.20;;;;;;;11.26;100.00;101399.84;7394269;19;20448;-58
2021/10/01 01:53:56;;;;;;;4.07;1.53;;;;;;;11.21;100.00;101400.53;7399007;19;20424;-57
2021/10/01 01:56:29;;;;;;;6.00;1.40;;;;;;;11.23;100.00;101394.53;7384495;19;20396;-57
2021/10/01 01:58:59;;;;;;;4.50;1.40;;;;;;;11.23;100.00;101391.97;7400428;19;20388;-57
2021/10/01 02:01:32;;;;;;;5.60;2.07;;;;;;;11.26;100.00;101389.50;7394024;19;20386;-58
2021/10/01 02:04:05;;;;;;;5.90;1.23;;;;;;;11.28;100.00;101380.16;7399068;19;21005;-59
2021/10/01 02:06:35;;;;;;;4.67;1.60;;;;;;;11.25;100.00;101382.56;7391297;19;20447;-56
2021/10/01 02:09:05;;;;;;;5.53;1.57;;;;;;;11.20;100.00;101385.84;7400444;19;20384;-56
2021/10/01 02:11:35;;;;;;;5.47;1.50;;;;;;;11.25;100.00;101377.41;7393726;19;20443;-57
2021/10/01 02:14:05;;;;;;;7.53;1.23;;;;;;;11.19;100.00;101378.88;7398715;19;20441;-56
2021/10/01 02:16:35;;;;;;;4.63;1.37;;;;;;;11.25;100.00;101369.66;7386432;19;20394;-57
2021/10/01 02:19:08;;;;;;;4.00;1.40;;;;;;;11.25;100.00;101378.31;7399908;19;20396;-57
2021/10/01 02:21:38;;;;;;;5.23;1.70;;;;;;;11.26;100.00;101374.00;7372943;19;20886;-57
2021/10/01 02:24:08;;;;;;;7.40;1.27;;;;;;;11.29;100.00;101375.03;7401885;19;20704;-55
2021/10/01 02:26:46;;;;;;;2.20;1.10;;;;;;;11.29;100.00;101372.47;7395530;19;20476;-58
2021/10/01 02:29:20;;;;;;;8.40;1.57;;;;;;;11.31;100.00;101362.22;7399841;19;20384;-56
2021/10/01 02:32:00;;;;;;;2.77;0.97;;;;;;;11.26;100.00;101363.69;7396753;19;20502;-56
2021/10/01 02:34:35;;;;;;;3.93;1.20;;;;;;;11.28;100.00;101362.06;7397764;19;20462;-58
2021/10/01 02:37:07;;;;;;;63.10;32.60;;;;;;;11.32;100.00;101354.53;7379990;19;20414;-58
2021/10/01 02:39:37;;;;;;;9.00;2.13;;;;;;;11.33;100.00;101350.25;7399580;19;20379;-58
2021/10/01 02:42:08;;;;;;;5.33;1.50;;;;;;;11.31;100.00;101352.78;7393150;19;20407;-58
2021/10/01 02:44:38;;;;;;;3.70;1.57;;;;;;;11.34;100.00;101337.41;7397562;19;20483;-58
2021/10/01 02:47:08;;;;;;;2.73;1.10;;;;;;;11.28;100.00;101333.66;7392283;19;20407;-58
2021/10/01 02:49:40;;;;;;;4.70;1.57;;;;;;;11.29;100.00;101335.44;7401337;19;20694;-58
2021/10/01 02:52:14;;;;;;;5.50;1.30;;;;;;;11.27;100.00;101329.31;7392820;19;20494;-59
2021/10/01 02:54:48;;;;;;;2.17;1.20;;;;;;;11.30;100.00;101332.03;7399955;19;20439;-59
2021/10/01 02:57:21;;;;;;;4.70;1.40;;;;;;;11.32;100.00;101336.47;7391542;19;20423;-58
2021/10/01 02:59:52;;;;;;;3.70;1.20;;;;;;;11.29;100.00;101327.69;7399140;19;20447;-55
2021/10/01 03:02:22;;;;;;;7.50;1.53;;;;;;;11.33;100.00;101321.81;7372902;19;20399;-57
2021/10/01 03:04:57;;;;;;;5.80;1.60;;;;;;;11.36;100.00;101314.22;7398197;19;20662;-58
2021/10/01 03:07:29;;;;;;;4.17;1.00;;;;;;;11.29;100.00;101317.34;7391842;19;20423;-55
2021/10/01 03:09:59;;;;;;;4.60;1.40;;;;;;;11.39;100.00;101319.53;7399611;19;20382;-56
2021/10/01 03:12:29;;;;;;;3.63;1.13;;;;;;;11.31;100.00;101318.28;7391861;19;20411;-56
2021/10/01 03:14:58;;;;;;;5.83;1.80;;;;;;;11.36;100.00;101314.22;7396930;19;20399;-55
2021/10/01 03:17:28;;;;;;;10.63;1.63;;;;;;;11.34;100.00;101315.88;7389783;19;20654;-58
2021/10/01 03:20:01;;;;;;;6.13;1.43;;;;;;;11.28;100.00;101310.41;7398596;19;20398;-59
2021/10/01 03:22:33;;;;;;;5.60;1.50;;;;;;;11.21;100.00;101315.28;7391928;19;20490;-57
2021/10/01 03:25:04;;;;;;;5.57;1.57;;;;;;;11.28;100.00;101306.09;7400864;19;20886;-58
2021/10/01 03:27:35;;;;;;;6.80;1.40;;;;;;;11.29;100.00;101312.19;7391314;19;20483;-58
2021/10/01 03:30:08;;;;;;;3.30;1.27;;;;;;;11.16;100.00;101301.25;7402445;19;20398;-57
2021/10/01 03:32:38;;;;;;;2.10;1.00;;;;;;;11.13;100.00;101310.56;7401549;19;20704;-54
2021/10/01 03:35:12;;;;;;;4.13;1.30;;;;;;;11.10;100.00;101300.97;7403181;19;20391;-56
2021/10/01 03:37:42;;;;;;;4.20;1.60;;;;;;;11.13;100.00;101305.41;7401118;19;20448;-57
2021/10/01 03:40:14;;;;;;;4.80;1.40;;;;;;;11.05;100.00;101299.84;7405377;19;20464;-57
2021/10/01 03:42:44;;;;;;;7.97;1.70;;;;;;;11.04;100.00;101305.81;7398340;19;20431;-56
2021/10/01 03:45:13;;;;;;;3.50;1.60;;;;;;;10.98;100.00;101296.06;7405274;19;20909;-56
2021/10/01 03:47:43;;;;;;;6.33;1.40;;;;;;;11.02;100.00;101307.47;7387332;19;20421;-58
2021/10/01 03:50:15;;;;;;;7.67;1.30;;;;;;;11.02;100.00;101302.28;7405098;19;20391;-57
2021/10/01 03:52:45;;;;;;;4.23;1.53;;;;;;;10.97;100.00;101301.19;7398498;19;20427;-56
2021/10/01 03:55:20;;;;;;;7.70;2.20;;;;;;;10.93;100.00;101301.00;7402418;19;20388;-57
2021/10/01 03:57:50;;;;;;;4.90;1.50;;;;;;;10.90;100.00;101298.31;7398543;19;20422;-55
2021/10/01 04:00:21;;;;;;;5.63;1.30;;;;;;;10.90;100.00;101295.72;7404707;19;20404;-55
2021/10/01 04:02:50;;;;;;;4.33;1.30;;;;;;;10.79;100.00;101290.03;7398248;19;20486;-57
2021/10/01 04:05:24;;;;;;;5.97;1.50;;;;;;;10.77;100.00;101296.78;7404572;19;20388;-57
2021/10/01 04:07:53;;;;;;;4.90;1.67;;;;;;;10.81;100.00;101287.50;7397868;19;20415;-58
2021/10/01 04:10:23;;;;;;;4.30;1.60;;;;;;;10.76;100.00;101287.28;7404350;19;20398;-56
2021/10/01 04:12:52;;;;;;;3.70;1.27;;;;;;;10.71;100.00;101290.47;7372316;19;20431;-57
2021/10/01 04:15:22;;;;;;;4.70;2.10;;;;;;;10.71;100.00;101282.72;7401898;19;20395;-58
2021/10/01 04:17:51;;;;;;;4.00;1.80;;;;;;;10.72;100.00;101284.47;7397712;19;20482;-56
2021/10/01 04:20:23;;;;;;;4.20;1.60;;;;;;;10.68;100.00;101280.88;7405464;19;20392;-58
2021/10/01 04:22:53;;;;;;;5.70;1.70;;;;;;;10.68;100.00;101280.88;7398448;19;20486;-55
2021/10/01 04:25:22;;;;;;;8.27;2.07;;;;;;;10.58;100.00;101279.53;7403791;19;20444;-58
2021/10/01 04:27:52;;;;;;;7.00;1.80;;;;;;;10.53;100.00;101281.84;7397319;19;20419;-56
2021/10/01 04:30:22;;;;;;;4.63;1.43;;;;;;;10.56;100.00;101283.69;7403576;19;20447;-59
2021/10/01 04:33:00;;;;;;;4.43;1.40;;;;;;;10.48;100.00;101282.44;7396510;19;20457;-53
2021/10/01 04:35:32;;;;;;;4.83;1.40;;;;;;;10.51;100.00;101287.78;7401204;19;20451;-57
2021/10/01 04:38:01;;;;;;;3.80;1.20;;;;;;;10.43;100.00;101278.75;7397265;19;20423;-59
2021/10/01 04:40:32;;;;;;;7.30;2.10;;;;;;;10.49;100.00;101289.38;7403118;19;20470;-57
2021/10/01 04:43:02;;;;;;;4.07;1.50;;;;;;;10.45;100.00;101284.88;7395929;19;20453;-57
2021/10/01 04:45:31;;;;;;;7.43;1.70;;;;;;;10.45;100.00;101287.47;7402675;19;20913;-57
2021/10/01 04:48:00;;;;;;;5.00;1.40;;;;;;;10.48;100.00;101278.19;7396482;19;20437;-58
2021/10/01 04:50:33;;;;;;;7.10;1.60;;;;;;;10.50;100.00;101286.88;7402806;19;20417;-58
2021/10/01 04:53:03;;;;;;;11.90;1.97;;;;;;;10.44;100.00;101285.66;7372410;19;20431;-57
2021/10/01 04:55:34;;;;;;;4.97;1.33;;;;;;;10.45;100.00;101283.16;7401662;19;20483;-58
2021/10/01 04:58:04;;;;;;;4.83;1.83;;;;;;;10.48;100.00;101285.03;7396705;19;20439;-56
2021/10/01 05:00:34;;;;;;;8.30;1.40;;;;;;;10.44;100.00;101290.81;7402553;19;20390;-59
2021/10/01 05:03:04;;;;;;;6.60;1.90;;;;;;;10.55;100.00;101292.25;7399455;19;20717;-57
2021/10/01 05:05:36;;;;;;;3.47;1.77;;;;;;;10.50;100.00;101291.13;7401930;19;20400;-58
2021/10/01 05:08:06;;;;;;;3.70;1.57;;;;;;;10.57;100.00;101292.34;7396501;19;20414;-55
2021/10/01 05:10:35;;;;;;;4.10;1.37;;;;;;;10.66;100.00;101293.69;7402097;19;20451;-57
2021/10/01 05:13:05;;;;;;;3.93;1.60;;;;;;;10.57;100.00;101293.25;7394824;19;20420;-58
2021/10/01 05:15:35;;;;;;;3.50;1.40;;;;;;;10.58;100.00;101289.84;7401689;19;20396;-59
2021/10/01 05:18:04;;;;;;;5.57;1.60;;;;;;;10.64;100.00;101290.16;7398048;19;20419;-59
2021/10/01 05:20:36;;;;;;;2.90;1.60;;;;;;;10.59;100.00;101291.63;7401969;19;20518;-57
2021/10/01 05:23:06;;;;;;;3.93;1.43;;;;;;;10.63;100.00;101287.50;7372580;19;20429;-53
2021/10/01 05:25:35;;;;;;;4.83;1.70;;;;;;;10.64;100.00;101292.72;7401298;19;20668;-58
2021/10/01 05:28:05;;;;;;;5.83;1.40;;;;;;;10.66;100.00;101295.38;7395813;19;20504;-56
2021/10/01 05:30:35;;;;;;;6.53;1.63;;;;;;;10.70;100.00;101286.97;7401579;19;20471;-58
2021/10/01 05:33:09;;;;;;;4.37;1.40;;;;;;;10.76;100.00;101289.88;7395036;19;20439;-58
2021/10/01 05:35:43;;;;;;;7.10;1.60;;;;;;;10.82;100.00;101293.56;7399826;19;20391;-58
2021/10/01 05:38:13;;;;;;;7.60;1.30;;;;;;;10.80;100.00;101286.63;7397035;19;20686;-56
2021/10/01 05:40:43;;;;;;;4.10;1.50;;;;;;;10.72;100.00;101287.06;7401272;19;20387;-57
2021/10/01 05:43:13;;;;;;;7.13;1.40;;;;;;;10.74;100.00;101286.34;7396141;19;20889;-56
2021/10/01 05:45:42;;;;;;;8.30;1.90;;;;;;;10.73;100.00;101286.25;7400551;19;20459;-52
2021/10/01 05:48:12;;;;;;;9.67;1.73;;;;;;;10.85;100.00;101283.38;7398123;19;20429;-55
2021/10/01 05:50:45;;;;;;;9.23;1.50;;;;;;;10.75;100.00;101287.19;7400639;19;20387;-58
2021/10/01 05:53:35;;;;;;;5.67;2.00;;;;;;;10.73;100.00;101296.56;7391581;19;20511;-56
2021/10/01 05:56:07;;;;;;;4.03;1.60;;;;;;;10.69;100.00;101292.06;7401368;19;20865;-55
2021/10/01 05:58:37;;;;;;;6.30;2.27;;;;;;;10.63;100.00;101285.81;7397800;19;20446;-58
2021/10/01 06:01:07;;;;;;;14.77;5.80;;;;;;;10.67;100.00;101287.72;7400844;19;20384;-54
2021/10/01 06:03:37;;;;;;;6.10;1.27;;;;;;;10.65;100.00;101281.59;7393079;19;20455;-57
2021/10/01 06:06:09;;;;;;;6.53;2.27;;;;;;;10.67;100.00;101285.13;7399579;19;20854;-55
2021/10/01 06:08:39;;;;;;;8.50;3.53;;;;;;;10.64;100.00;101290.16;7393682;19;20475;-58
2021/10/01 06:11:09;;;;;;;5.20;1.40;;;;;;;10.74;100.00;101283.75;7403444;19;20425;-57
2021/10/01 06:13:38;;;;;;;6.00;2.40;;;;;;;10.64;100.00;101290.16;7392792;19;20524;-58
2021/10/01 06:16:09;;;;;;;6.67;2.70;;;;;;;10.58;100.00;101284.69;7398079;19;20389;-56
2021/10/01 06:18:39;;;;;;;7.20;2.00;;;;;;;10.64;100.00;101274.66;7397484;19;20901;-57
2021/10/01 06:21:11;;;;;;;4.73;1.70;;;;;;;10.60;100.00;101280.47;7399857;19;20399;-57
2021/10/01 06:23:40;;;;;;;16.93;2.67;;;;;;;10.62;100.00;101276.28;7392837;19;20426;-58
2021/10/01 06:26:10;;;;;;;4.67;1.70;;;;;;;10.63;100.00;101280.66;7399151;19;20412;-58
2021/10/01 06:28:40;;;;;;;3.30;1.50;;;;;;;10.66;100.00;101277.31;7397064;19;20462;-58
2021/10/01 06:31:09;;;;;;;8.90;3.17;;;;;;;10.64;100.00;101274.66;7402458;19;20411;-58
2021/10/01 06:33:40;;;;;;;7.67;3.17;;;;;;;10.62;100.00;101277.97;7392657;19;20448;-51
2021/10/01 06:36:16;;;;;;;8.17;2.13;;;;;;;10.62;100.00;101284.00;7397851;19;20387;-57
2021/10/01 06:38:46;;;;;;;4.23;1.63;;;;;;;10.59;100.00;101281.28;7398502;19;20411;-56
2021/10/01 06:41:15;;;;;;;5.30;2.00;;;;;;;10.63;100.00;101280.66;7399412;19;20725;-55
2021/10/01 06:43:45;;;;;;;5.00;1.63;;;;;;;10.62;100.00;101280.56;7397885;19;20467;-57
2021/10/01 06:46:23;;;;;;;4.63;1.60;;;;;;;10.62;100.00;101285.72;7398660;19;20856;-56
2021/10/01 06:49:03;;;;;;;5.30;1.87;;;;;;;10.70;100.00;101278.34;7398274;19;20438;-57
2021/10/01 06:51:49;;;;;;;4.30;1.43;;;;;;;10.71;100.00;101286.16;7395668;19;20447;-56
2021/10/01 07:36:11;;;;;;;6.07;1.73;;;;;;;11.17;100.00;101272.03;7403999;19;20419;-55
2021/10/01 08:19:25;;;;;;;8.27;1.40;;;;;;;11.58;100.00;101269.59;7405414;19;20396;-58
2021/10/01 08:21:56;;;;;;;4.60;1.40;;;;;;;11.68;100.00;101260.56;7396377;19;20475;-59
2021/10/01 08:24:26;;;;;;;6.07;1.80;;;;;;;11.69;100.00;101266.63;7401489;19;20457;-58
2021/10/01 08:26:56;;;;;;;5.00;1.47;;;;;;;11.75;100.00;101261.75;7396275;19;20475;-56
2021/10/01 08:29:28;;;;;;;5.10;2.10;;;;;;;11.94;100.00;101254.81;7403351;19;20418;-57
2021/10/01 08:32:01;;;;;;;5.67;1.40;;;;;;;11.91;100.00;101263.31;7394630;19;20419;-58
2021/10/01 08:34:31;;;;;;;6.73;1.60;;;;;;;11.98;100.00;101260.19;7400699;19;20706;-57
2021/10/01 08:37:02;;;;;;;3.17;1.40;;;;;;;12.00;100.00;101268.88;7393490;19;20459;-58
2021/10/01 08:39:32;;;;;;;3.70;1.17;;;;;;;12.04;100.00;101264.75;7401937;19;20460;-56
2021/10/01 08:42:06;;;;;;;5.43;1.83;;;;;;;12.28;100.00;101254.59;7394083;19;20411;-57
2021/10/01 08:44:39;;;;;;;5.20;1.13;;;;;;;12.36;100.00;101248.88;7398386;19;20407;-58
2021/10/01 08:47:10;;;;;;;3.80;1.10;;;;;;;12.35;100.00;101254.88;7393138;19;20510;-55
2021/10/01 08:49:41;;;;;;;4.20;1.20;;;;;;;12.43;100.00;101250.88;7400959;19;20401;-58
2021/10/01 08:52:11;;;;;;;3.33;1.30;;;;;;;12.53;100.00;101242.69;7394011;19;20419;-58
2021/10/01 08:54:41;;;;;;;4.93;1.20;;;;;;;12.60;100.00;101245.53;7400145;19;20520;-59
2021/10/01 08:57:11;;;;;;;4.73;1.57;;;;;;;12.69;100.00;101245.91;7255484;19;2742634;-55
2021/10/01 08:59:43;;;;;;;4.53;1.40;;;;;;;12.81;100.00;101240.31;7406618;19;20184;-58
2021/10/01 09:02:12;;;;;;;6.10;1.77;;;;;;;12.77;100.00;101239.31;7397366;19;20438;-59
2021/10/01 09:04:42;;;;;;;4.17;1.40;;;;;;;12.88;100.00;101242.38;7402424;19;20893;-58
2021/10/01 09:07:12;;;;;;;7.30;1.73;;;;;;;13.02;100.00;101227.34;7397307;19;20490;-53
2021/10/01 09:09:43;;;;;;;6.90;1.50;;;;;;;13.05;100.00;101222.31;7402449;19;20451;-56
2021/10/01 09:12:16;;;;;;;5.50;1.80;;;;;;;13.13;100.00;101224.31;7397694;19;20439;-56
2021/10/01 09:14:51;;;;;;;9.43;3.17;;;;;;;13.33;100.00;101225.94;7404763;19;20420;-55
2021/10/01 09:17:22;;;;;;;3.90;1.30;;;;;;;13.44;100.00;101230.66;7397085;19;20503;-57
2021/10/01 09:19:54;;;;;;;6.80;1.97;;;;;;;13.32;100.00;101219.00;7403269;19;20391;-57
2021/10/01 09:22:28;;;;;;;9.13;1.80;;;;;;;13.12;100.00;101228.59;7395360;19;20487;-58
2021/10/01 09:25:10;;;;;;;5.87;1.27;;;;;;;13.34;100.00;101219.94;7405565;19;20407;-55
2021/10/01 09:27:41;;;;;;;2.97;1.30;;;;;;;13.52;100.00;101211.13;7392421;19;20419;-57
2021/10/01 09:30:16;;;;;;;6.33;1.80;;;;;;;13.57;100.00;101219.97;7401602;19;20650;-58
2021/10/01 09:33:05;;;;;;;5.13;1.30;;;;;;;13.60;100.00;101208.81;7372661;19;20446;-57
2021/10/01 09:35:36;;;;;;;3.73;1.60;;;;;;;13.67;100.00;101210.81;7401895;19;20394;-52
2021/10/01 09:38:07;;;;;;;5.20;2.13;;;;;;;13.88;100.00;101205.50;7375348;19;20427;-58
2021/10/01 09:40:37;;;;;;;8.90;1.53;;;;;;;13.91;100.00;101203.00;7404647;19;20463;-58
2021/10/01 09:43:09;;;;;;;5.90;1.60;;;;;;;13.93;100.00;101194.41;7374177;19;20905;-56
2021/10/01 09:45:41;;;;;;;6.77;1.67;;;;;;;14.06;100.00;101194.00;7404645;19;20412;-58
2021/10/01 09:48:12;;;;;;;7.87;1.93;;;;;;;13.91;100.00;101192.63;7375534;19;20427;-58
2021/10/01 09:50:42;;;;;;;6.20;1.60;;;;;;;14.02;100.00;101192.13;7405228;19;20459;-57
2021/10/01 09:53:11;;;;;;;7.37;1.90;;;;;;;14.16;100.00;101187.41;7395882;19;20428;-58
2021/10/01 09:55:45;;;;;;;3.30;0.90;;;;;;;14.33;100.00;101185.38;7400020;19;20455;-57
2021/10/01 09:58:17;;;;;;;8.17;2.00;;;;;;;14.45;100.00;101182.28;7393554;19;20418;-57
2021/10/01 10:00:52;;;;;;;6.50;1.30;;;;;;;14.52;100.00;101178.19;7400594;19;20400;-57
2021/10/01 10:03:33;;;;;;;5.57;1.53;;;;;;;14.65;100.00;101185.53;7393283;19;20434;-57
2021/10/01 10:06:05;;;;;;;4.60;1.23;;;;;;;14.64;100.00;101177.69;7399592;19;20415;-58
2021/10/01 10:08:37;;;;;;;6.10;1.40;;;;;;;14.78;100.00;101179.06;7393501;19;20427;-53
2021/10/01 10:11:10;;;;;;;5.53;1.20;;;;;;;14.80;100.00;101176.50;7400118;19;20424;-55
2021/10/01 10:13:46;;;;;;;4.07;1.30;;;;;;;15.07;100.00;101167.81;7392976;19;20535;-56
2021/10/01 10:16:20;;;;;;;6.13;1.20;;;;;;;14.87;100.00;101164.59;7399923;19;20648;-54
2021/10/01 10:18:51;;;;;;;12.33;1.83;;;;;;;15.09;100.00;101166.13;7397292;19;20500;-55
2021/10/01 10:21:20;;;;;;;3.50;1.03;;;;;;;15.03;100.00;101165.94;7393518;19;20455;-55
2021/10/01 10:23:51;;;;;;;5.40;1.40;;;;;;;15.27;100.00;101159.69;7398211;19;20426;-56
2021/10/01 10:26:20;;;;;;;7.20;1.40;;;;;;;15.28;100.00;101161.47;7395882;19;20403;-58
2021/10/01 10:28:50;;;;;;;6.07;1.60;;;;;;;15.09;100.00;101160.91;7399294;19;20458;-58
2021/10/01 10:31:28;;;;;;;5.07;1.43;;;;;;;15.11;100.00;101156.63;7393031;19;20399;-58
2021/10/01 10:33:59;;;;;;;8.07;2.53;;;;;;;15.07;100.00;101160.00;7398203;19;20422;-58
2021/10/01 10:36:33;;;;;;;9.60;2.10;;;;;;;15.23;100.00;101149.19;7392117;19;20403;-57
2021/10/01 10:39:36;;;;;;;7.47;3.20;;;;;;;15.37;100.00;101149.59;7398535;19;20399;-56
2021/10/01 10:42:12;;;;;;;7.43;2.20;;;;;;;15.61;100.00;101150.25;7392845;19;20418;-59
2021/10/01 10:44:46;;;;;;;9.17;1.10;;;;;;;15.25;100.00;101154.44;7397160;19;20475;-56
2021/10/01 10:47:46;;;;;;;5.77;1.57;;;;;;;15.29;100.00;101147.63;7394102;19;20446;-58
2021/10/01 10:50:47;;;;;;;8.53;1.10;;;;;;;15.19;100.00;101146.47;7399268;19;20837;-56
2021/10/01 10:53:25;;;;;;;17.60;4.10;;;;;;;15.21;100.00;101145.69;7391962;19;20434;-56
2021/10/01 10:56:09;;;;;;;5.87;1.10;;;;;;;15.17;100.00;101141.22;7398019;19;20849;-56
2021/10/01 10:58:50;;;;;;;15.53;2.50;;;;;;;15.24;100.00;101139.69;7391173;19;20523;-57
2021/10/01 11:01:37;;;;;;;3.17;1.40;;;;;;;15.36;100.00;101136.56;7393630;19;20459;-57
2021/10/01 11:04:27;;;;;;;7.23;1.50;;;;;;;15.49;100.00;101146.44;7397083;19;20411;-55
2021/10/01 11:06:57;;;;;;;3.87;1.50;;;;;;;15.66;100.00;101138.25;7391840;19;20415;-59
2021/10/01 11:09:32;;;;;;;7.40;1.57;;;;;;;15.91;100.00;101131.94;7398797;19;20728;-58
2021/10/01 11:12:04;;;;;;;6.50;1.10;;;;;;;15.98;100.00;101134.75;7392245;19;20427;-56
2021/10/01 11:14:34;;;;;;;4.07;0.87;;;;;;;15.97;100.00;101132.97;7396366;19;20431;-58
2021/10/01 11:17:20;;;;;;;8.27;1.20;;;;;;;16.11;100.00;101128.13;7390999;19;20425;-59
2021/10/01 11:19:54;;;;;;;6.23;1.63;;;;;;;16.15;100.00;101127.38;7400601;19;20434;-56
2021/10/01 11:22:36;;;;;;;5.40;1.60;;;;;;;16.02;100.00;101115.78;7369707;19;20466;-58
2021/10/01 11:25:11;;;;;;;4.13;1.37;;;;;;;16.12;100.00;101107.38;7398204;19;20882;-56
2021/10/01 11:27:54;;;;;;;7.83;1.10;;;;;;;16.03;100.00;101113.22;7391164;19;20426;-58
2021/10/01 11:30:25;;;;;;;3.43;1.23;;;;;;;15.88;100.00;101111.06;7398091;19;20402;-58
2021/10/01 11:32:56;;;;;;;4.97;1.13;;;;;;;16.03;100.00;101112.31;7391096;19;20462;-56
2021/10/01 11:35:28;;;;;;;4.97;1.30;;;;;;;15.94;100.00;101105.16;7397694;19;20391;-55
2021/10/01 11:37:58;;;;;;;5.07;1.93;;;;;;;15.97;100.00;101097.44;7391026;19;20434;-58
2021/10/01 11:40:30;;;;;;;5.17;1.90;;;;;;;16.05;100.00;101103.72;7397958;19;20455;-58
2021/10/01 11:43:01;;;;;;;4.77;1.77;;;;;;;16.02;100.00;101105.38;7368324;19;20437;-58
2021/10/01 11:45:33;;;;;;;3.00;1.17;;;;;;;16.10;100.00;101106.41;7398225;19;20400;-58
2021/10/01 11:48:05;;;;;;;4.53;1.23;;;;;;;16.12;100.00;101099.56;7394475;19;20691;-57
2021/10/01 11:50:40;;;;;;;2.83;1.20;;;;;;;16.35;100.00;101090.53;7400163;19;20408;-55
2021/10/01 11:53:19;;;;;;;6.10;1.40;;;;;;;16.51;100.00;101092.63;7397091;19;20474;-58
2021/10/01 11:55:54;;;;;;;7.27;1.70;;;;;;;16.57;100.00;101086.69;7404163;19;20451;-57
2021/10/01 11:58:24;;;;;;;5.47;1.50;;;;;;;16.44;100.00;101093.31;7396881;19;20443;-57
2021/10/01 12:00:55;;;;;;;7.80;1.43;;;;;;;16.49;100.00;101090.81;7404680;19;20906;-58
2021/10/01 12:03:25;;;;;;;7.20;1.50;;;;;;;16.68;100.00;101098.22;7376512;19;20781;-56
2021/10/01 12:05:57;;;;;;;5.27;1.60;;;;;;;16.85;100.00;101079.47;7403363;19;20419;-57
2021/10/01 12:08:29;;;;;;;4.00;1.23;;;;;;;16.79;100.00;101084.53;7397741;19;20423;-56
2021/10/01 12:11:01;;;;;;;6.70;1.23;;;;;;;16.84;100.00;101078.59;7403875;19;20384;-58
2021/10/01 12:13:35;;;;;;;9.00;1.47;;;;;;;16.76;100.00;101080.13;7396514;19;20415;-59
2021/10/01 12:16:08;;;;;;;5.83;1.30;;;;;;;16.79;100.00;101069.78;7402001;19;20714;-58
2021/10/01 12:18:41;;;;;;;5.07;1.10;;;;;;;16.73;100.00;101065.31;7397781;19;20476;-58
2021/10/01 12:21:15;;;;;;;5.77;1.30;;;;;;;16.45;100.00;101077.75;7403575;19;20414;-59
2021/10/01 12:23:46;;;;;;;4.20;1.43;;;;;;;16.47;100.00;101068.22;7401715;19;20431;-57
2021/10/01 12:26:19;;;;;;;4.77;1.07;;;;;;;16.67;100.00;101064.31;7403112;19;20391;-57
2021/10/01 12:29:05;;;;;;;11.70;4.30;;;;;;;17.28;100.00;101066.44;7404646;19;20439;-58
2021/10/01 12:31:39;;;;;;;3.83;1.20;;;;;;;17.20;100.00;101065.41;7399917;19;20418;-59
2021/10/01 12:34:11;;;;;;;7.73;1.73;;;;;;;17.23;100.00;101062.88;7402220;19;20447;-57
2021/10/01 12:36:44;;;;;;;3.70;1.37;;;;;;;16.85;100.00;101049.06;7375343;19;20391;-56
2021/10/01 12:39:14;;;;;;;4.13;1.27;;;;;;;16.79;100.00;101053.28;7400524;19;20730;-57
2021/10/01 12:41:44;;;;;;;5.33;1.60;;;;;;;16.85;100.00;101043.88;7396878;19;20423;-57
2021/10/01 12:44:17;;;;;;;4.10;1.63;;;;;;;16.98;100.00;101049.31;7401051;19;20432;-57
2021/10/01 12:46:49;;;;;;;6.03;1.90;;;;;;;16.88;100.00;101041.31;7398947;19;20448;-58
2021/10/01 12:49:21;;;;;;;9.00;1.63;;;;;;;17.20;100.00;101031.50;7403652;19;20451;-57
2021/10/01 12:52:12;;;;;;;6.33;1.30;;;;;;;17.35;100.00;101037.03;7375231;19;20869;-58
2021/10/01 12:54:50;;;;;;;2.60;0.90;;;;;;;16.97;100.00;101042.38;7399491;19;20434;-57
2021/10/01 12:57:28;;;;;;;6.27;1.30;;;;;;;17.05;100.00;101027.78;7395801;19;20425;-58
2021/10/01 13:00:00;;;;;;;5.20;1.20;;;;;;;17.03;100.00;101026.88;7400730;19;20380;-58
2021/10/01 13:02:40;;;;;;;5.77;2.43;;;;;;;16.78;100.00;101034.16;7396639;19;20770;-59
2021/10/01 13:05:11;;;;;;;4.97;1.20;;;;;;;16.94;100.00;101030.16;7402420;19;20376;-59